Station History

Weather Underground - logo

Station Historical Data
Daily Summary for March 6, 2018 Units:  Metric    English   Both
« Previous Day
Next Day »
Daily Weekly Monthly Yearly Custom
  High: Low: Average:
Temperature: 20.6 °C 2.4 °C 11.4 °C
Dew Point: 7.9 °C 1.2 °C 4.8 °C
Humidity: 95 % 30 % 69 %
Wind Speed: 9.3 km/h 0 km/h 1.9 km/h
Wind Gust: 9.3 km/h - -
Wind:- - WSW
Pressure: 1022.6 hPa 1017.2 hPa -
Precipitation: 0 mm    
Historical Graphs
 
 
Tabular Data for March 6, 2018
Time Temperature Dew Point Pressure Wind Wind Speed Wind Gust Humidity Rainfall Rate (Hourly)
00:03 5.5 °C 4 °C 1021.9 hPa Calm     90 % 0 mm
00:09 5.6 °C 4.1 °C 1021.9 hPa Calm     90 % 0 mm
00:14 5.5 °C 4 °C 1021.9 hPa Calm     90 % 0 mm
00:19 5.6 °C 4.1 °C 1021.9 hPa Calm     90 % 0 mm
00:24 5.6 °C 4.1 °C 1021.9 hPa Calm     90 % 0 mm
00:29 5.4 °C 3.9 °C 1021.9 hPa Calm     90 % 0 mm
00:34 5.3 °C 3.7 °C 1022.2 hPa Calm     89 % 0 mm
00:39 5.1 °C 3.4 °C 1022.2 hPa Calm     89 % 0 mm
00:44 4.9 °C 3.2 °C 1022.2 hPa Calm     89 % 0 mm
00:49 4.9 °C 3.4 °C 1022.2 hPa Calm     90 % 0 mm
00:54 4.8 °C 3.3 °C 1022.2 hPa Calm     90 % 0 mm
00:59 4.8 °C 3.5 °C 1022.6 hPa Calm     91 % 0 mm
01:04 4.9 °C 3.6 °C 1022.6 hPa Calm     91 % 0 mm
01:09 4.9 °C 3.6 °C 1022.2 hPa Calm     91 % 0 mm
01:14 4.9 °C 3.6 °C 1022.6 hPa Calm     91 % 0 mm
01:19 4.9 °C 3.6 °C 1022.6 hPa Calm     91 % 0 mm
01:24 5 °C 3.7 °C 1022.6 hPa Calm     91 % 0 mm
01:29 5 °C 3.7 °C 1022.2 hPa Calm     91 % 0 mm
01:34 4.7 °C 3.2 °C 1022.2 hPa Calm     90 % 0 mm
01:39 4.6 °C 3.1 °C 1022.2 hPa Calm     90 % 0 mm
01:44 4.6 °C 3.4 °C 1022.2 hPa North 1.9 km/h   92 % 0 mm
01:49 4.8 °C 3.7 °C 1022.2 hPa Calm     92 % 0 mm
01:54 5 °C 3.8 °C 1022.2 hPa Calm     92 % 0 mm
01:59 5.1 °C 3.7 °C 1022.2 hPa Calm     91 % 0 mm
02:04 5.1 °C 3.7 °C 1022.2 hPa Calm     91 % 0 mm
02:09 5.1 °C 3.7 °C 1021.9 hPa Calm     91 % 0 mm
02:14 5.1 °C 3.7 °C 1021.9 hPa Calm     91 % 0 mm
02:19 5.1 °C 3.7 °C 1021.9 hPa Calm     91 % 0 mm
02:24 4.8 °C 3.3 °C 1021.9 hPa Calm     90 % 0 mm
02:29 4.6 °C 3.1 °C 1021.9 hPa Calm     90 % 0 mm
02:34 4.2 °C 2.7 °C 1021.9 hPa Calm     90 % 0 mm
02:39 4 °C 2.7 °C 1021.6 hPa Calm     91 % 0 mm
02:44 4 °C 2.8 °C 1021.6 hPa Calm     92 % 0 mm
02:49 4.1 °C 2.9 °C 1021.6 hPa Calm     92 % 0 mm
02:55 4.2 °C 3.1 °C 1021.6 hPa Calm     92 % 0 mm
03:00 4.3 °C 3.1 °C 1021.6 hPa Calm     92 % 0 mm
03:05 4.2 °C 3.1 °C 1021.6 hPa Calm     92 % 0 mm
03:10 4.1 °C 2.8 °C 1021.6 hPa Calm     91 % 0 mm
03:15 3.9 °C 2.4 °C 1021.2 hPa Calm     90 % 0 mm
03:20 3.7 °C 2.3 °C 1021.2 hPa Calm     91 % 0 mm
03:25 3.5 °C 2.2 °C 1021.2 hPa Calm     91 % 0 mm
03:30 3.4 °C 2.1 °C 1021.2 hPa Calm     91 % 0 mm
03:35 3.2 °C 1.9 °C 1021.2 hPa Calm     91 % 0 mm
03:40 3.1 °C 1.8 °C 1021.2 hPa Calm     91 % 0 mm
03:45 3 °C 1.7 °C 1021.2 hPa North 1.9 km/h 1.9 km/h 91 % 0 mm
03:50 2.8 °C 1.4 °C 1021.2 hPa Calm     91 % 0 mm
03:55 2.7 °C 1.3 °C 1021.2 hPa Calm     91 % 0 mm
04:00 2.6 °C 1.4 °C 1021.2 hPa Calm     92 % 0 mm
04:05 2.5 °C 1.3 °C 1021.2 hPa Calm     92 % 0 mm
04:10 2.4 °C 1.2 °C 1021.2 hPa Calm     92 % 0 mm
04:15 2.4 °C 1.4 °C 1021.2 hPa Calm     93 % 0 mm
04:20 2.6 °C 1.6 °C 1021.2 hPa Calm     93 % 0 mm
04:25 2.7 °C 1.7 °C 1021.2 hPa Calm     93 % 0 mm
04:30 2.8 °C 1.8 °C 1021.2 hPa Calm     93 % 0 mm
04:35 2.9 °C 1.9 °C 1021.2 hPa Calm     93 % 0 mm
04:40 3 °C 2 °C 1021.2 hPa Calm     93 % 0 mm
04:45 2.9 °C 1.9 °C 1021.6 hPa Calm     93 % 0 mm
04:50 2.8 °C 1.8 °C 1021.6 hPa Calm     93 % 0 mm
04:55 2.7 °C 1.7 °C 1021.6 hPa Calm     93 % 0 mm
05:00 2.7 °C 1.7 °C 1021.6 hPa Calm     93 % 0 mm
05:05 2.5 °C 1.5 °C 1021.6 hPa Calm     93 % 0 mm
05:10 2.5 °C 1.5 °C 1021.6 hPa Calm     93 % 0 mm
05:15 2.5 °C 1.5 °C 1021.6 hPa Calm     93 % 0 mm
05:20 2.5 °C 1.5 °C 1021.6 hPa Calm     93 % 0 mm
05:25 2.4 °C 1.4 °C 1021.6 hPa Calm     93 % 0 mm
05:30 2.4 °C 1.4 °C 1021.6 hPa Calm     93 % 0 mm
05:35 2.4 °C 1.4 °C 1021.6 hPa Calm     93 % 0 mm
05:40 2.4 °C 1.6 °C 1021.6 hPa Calm     94 % 0 mm
05:45 2.4 °C 1.6 °C 1021.6 hPa Calm     94 % 0 mm
05:50 2.6 °C 1.7 °C 1021.6 hPa Calm     94 % 0 mm
05:55 3.1 °C 2.4 °C 1021.6 hPa Calm     95 % 0 mm
06:00 3.3 °C 2.6 °C 1021.6 hPa Calm     95 % 0 mm
06:05 3.4 °C 2.7 °C 1021.6 hPa Calm     95 % 0 mm
06:10 3.4 °C 2.5 °C 1021.9 hPa Calm     94 % 0 mm
06:16 3.5 °C 2.6 °C 1021.9 hPa North 1.6 km/h 1.6 km/h 94 % 0 mm
06:21 3.6 °C 2.6 °C 1021.9 hPa North 1.9 km/h   93 % 0 mm
06:26 3.7 °C 2.7 °C 1021.9 hPa Calm     93 % 0 mm
06:31 3.7 °C 2.7 °C 1021.9 hPa Calm     93 % 0 mm
06:36 3.7 °C 2.5 °C 1022.2 hPa Calm     92 % 0 mm
06:41 3.4 °C 2.1 °C 1022.2 hPa Calm     91 % 0 mm
06:46 3.1 °C 1.7 °C 1022.2 hPa Calm     91 % 0 mm
06:51 2.9 °C 1.6 °C 1022.2 hPa Calm     91 % 0 mm
06:56 2.9 °C 1.8 °C 1022.2 hPa Calm     92 % 0 mm
07:01 2.9 °C 1.8 °C 1022.2 hPa Calm     92 % 0 mm
07:06 3.3 °C 2.3 °C 1022.2 hPa Calm     93 % 0 mm
07:11 3.6 °C 2.6 °C 1022.2 hPa Calm     93 % 0 mm
07:16 3.7 °C 2.7 °C 1022.2 hPa Calm     93 % 0 mm
07:21 4 °C 2.9 °C 1022.2 hPa Calm     93 % 0 mm
07:26 4.2 °C 3.2 °C 1022.2 hPa Calm     93 % 0 mm
07:31 4.9 °C 4.1 °C 1022.2 hPa Calm     94 % 0 mm
07:36 6.2 °C 5.1 °C 1022.2 hPa Calm     93 % 0 mm
07:41 7.2 °C 5.7 °C 1022.2 hPa Calm     90 % 0 mm
07:46 8 °C 5.9 °C 1022.2 hPa SE 1.9 km/h 1.9 km/h 87 % 0 mm
07:51 8.6 °C 6 °C 1022.2 hPa Calm   0.2 km/h 84 % 0 mm
07:56 8.9 °C 6.2 °C 1022.2 hPa South 1.9 km/h   83 % 0 mm
08:01 9.4 °C 6.5 °C 1022.2 hPa SSE 3.7 km/h 3.7 km/h 82 % 0 mm
08:06 9.7 °C 6.4 °C 1022.2 hPa ESE 3.2 km/h 3.2 km/h 80 % 0 mm
08:11 9.6 °C 5.9 °C 1022.6 hPa ESE 5.6 km/h 5.6 km/h 78 % 0 mm
08:16 9.6 °C 6.2 °C 1022.6 hPa SE 5.6 km/h 5.6 km/h 79 % 0 mm
08:21 9.8 °C 6.2 °C 1022.6 hPa SE 3.7 km/h 3.7 km/h 78 % 0 mm
08:26 10.1 °C 6.2 °C 1022.6 hPa South 5.6 km/h 5.6 km/h 77 % 0 mm
08:31 10.3 °C 6.5 °C 1022.2 hPa SSE 7.4 km/h 7.4 km/h 77 % 0 mm
08:36 10.5 °C 6.4 °C 1022.2 hPa SE 5.6 km/h 5.6 km/h 76 % 0 mm
08:41 10.7 °C 6.4 °C 1022.6 hPa South 6.4 km/h 6.4 km/h 75 % 0 mm
08:46 10.8 °C 6.6 °C 1022.6 hPa SSE 3.7 km/h 3.7 km/h 75 % 0 mm
08:51 11.1 °C 6.6 °C 1022.6 hPa SW 3.7 km/h 3.7 km/h 74 % 0 mm
08:56 11.3 °C 6.4 °C 1022.6 hPa ESE 7.4 km/h 7.4 km/h 72 % 0 mm
09:01 11.3 °C 6.7 °C 1022.6 hPa SSE 3.7 km/h 3.7 km/h 73 % 0 mm
09:06 11.6 °C 6.9 °C 1022.6 hPa SE 5.6 km/h 5.6 km/h 73 % 0 mm
09:12 11.9 °C 7.1 °C 1022.6 hPa South 5.6 km/h 5.6 km/h 72 % 0 mm
09:17 12.1 °C 7.2 °C 1022.6 hPa South 8 km/h 8 km/h 72 % 0 mm
09:22 12.3 °C 7.2 °C 1022.6 hPa SSE 5.6 km/h 5.6 km/h 71 % 0 mm
09:27 12.6 °C 7.3 °C 1022.6 hPa SE 5.6 km/h 5.6 km/h 70 % 0 mm
09:32 12.8 °C 6.8 °C 1022.2 hPa SSE 7.4 km/h 7.4 km/h 67 % 0 mm
09:37 13.1 °C 7.1 °C 1022.2 hPa East 5.6 km/h 5.6 km/h 67 % 0 mm
09:42 13.5 °C 7.3 °C 1022.6 hPa SE 8 km/h 8 km/h 66 % 0 mm
09:47 13.7 °C 6.8 °C 1022.2 hPa SE 9.3 km/h 9.3 km/h 63 % 0 mm
09:52 13.8 °C 7.1 °C 1022.2 hPa South 8 km/h 8 km/h 64 % 0 mm
09:57 14 °C 7.1 °C 1022.2 hPa East 4.8 km/h 4.8 km/h 63 % 0 mm
10:02 14.3 °C 6.6 °C 1022.2 hPa NE 5.6 km/h 5.6 km/h 60 % 0 mm
10:07 14.4 °C 6.5 °C 1022.2 hPa ESE 7.4 km/h 7.4 km/h 59 % 0 mm
10:12 14.6 °C 6.4 °C 1022.2 hPa SE 5.6 km/h 5.6 km/h 58 % 0 mm
10:17 14.9 °C 6.7 °C 1022.2 hPa SSE 5.6 km/h 5.6 km/h 58 % 0 mm
10:22 15.1 °C 6.8 °C 1022.2 hPa SE 5.6 km/h 5.6 km/h 58 % 0 mm
10:27 15.3 °C 6.8 °C 1022.2 hPa SE 1.9 km/h   57 % 0 mm
10:32 15.7 °C 7.2 °C 1022.2 hPa SSE 1.9 km/h 1.9 km/h 57 % 0 mm
10:37 15.8 °C 6.8 °C 1022.2 hPa SE 3.7 km/h 3.7 km/h 55 % 0 mm
10:42 15.8 °C 7.1 °C 1022.2 hPa SE 3.7 km/h 3.7 km/h 56 % 0 mm
10:47 16.1 °C 7.1 °C 1022.2 hPa Calm     55 % 0 mm
10:52 16.3 °C 7.3 °C 1022.2 hPa Calm   0.2 km/h 55 % 0 mm
10:57 16.6 °C 7.5 °C 1022.2 hPa ESE 5.6 km/h 5.6 km/h 55 % 0 mm
11:02 16.7 °C 6.8 °C 1022.2 hPa West 1.9 km/h 1.9 km/h 52 % 0 mm
11:07 16.8 °C 6.6 °C 1021.9 hPa NE 1.9 km/h 1.9 km/h 51 % 0 mm
11:12 16.4 °C 6.8 °C 1021.9 hPa South 4.8 km/h 4.8 km/h 53 % 0 mm
11:17 16.6 °C 6.4 °C 1021.9 hPa NW 3.7 km/h 3.7 km/h 51 % 0 mm
11:22 16.7 °C 7.1 °C 1021.9 hPa NE 1.9 km/h 1.9 km/h 53 % 0 mm
11:27 17.1 °C 7.4 °C 1021.9 hPa NW 1.9 km/h 1.9 km/h 53 % 0 mm
11:32 17.1 °C 7.2 °C 1021.9 hPa NW 1.9 km/h   52 % 0 mm
11:37 17.7 °C 7.9 °C 1021.6 hPa SE 1.9 km/h   53 % 0 mm
11:42 17.8 °C 6.9 °C 1021.6 hPa NW 3.7 km/h 3.7 km/h 49 % 0 mm
11:47 17.6 °C 6.7 °C 1021.2 hPa West 3.2 km/h 3.2 km/h 49 % 0 mm
11:52 17.4 °C 6.6 °C 1021.2 hPa WNW 4.8 km/h 4.8 km/h 49 % 0 mm
11:57 17.3 °C 6.4 °C 1021.2 hPa WNW 1.9 km/h 1.9 km/h 49 % 0 mm
12:02 17.5 °C 6.3 °C 1020.9 hPa NW 3.7 km/h 3.7 km/h 48 % 0 mm
12:07 17.6 °C 6.4 °C 1020.9 hPa NW 3.7 km/h 3.7 km/h 48 % 0 mm
12:12 17.6 °C 6.8 °C 1020.5 hPa WNW 3.7 km/h 3.7 km/h 49 % 0 mm
12:17 17.8 °C 6.9 °C 1020.5 hPa WNW 3.7 km/h 3.7 km/h 49 % 0 mm
12:22 17.9 °C 6.4 °C 1020.5 hPa NW 3.2 km/h 3.2 km/h 47 % 0 mm
12:27 18.1 °C 6.6 °C 1020.5 hPa WNW 5.6 km/h 5.6 km/h 47 % 0 mm
12:32 18.3 °C 7.1 °C 1020.5 hPa NW 3.2 km/h 3.2 km/h 48 % 0 mm
12:37 18.4 °C 6.9 °C 1020.2 hPa West 3.7 km/h 3.7 km/h 47 % 0 mm
12:42 18.3 °C 6.5 °C 1020.2 hPa NW 5.6 km/h 5.6 km/h 46 % 0 mm
12:47 18.5 °C 6.3 °C 1019.9 hPa NW 5.6 km/h 5.6 km/h 45 % 0 mm
12:52 18.5 °C 5.7 °C 1019.9 hPa NW 1.9 km/h 1.9 km/h 43 % 0 mm
12:57 18.7 °C 6.2 °C 1019.9 hPa WSW 3.7 km/h 3.7 km/h 44 % 0 mm
13:04 18.9 °C 6.4 °C 1019.9 hPa North 5.6 km/h 5.6 km/h 44 % 0 mm
13:07 19 °C 5.4 °C 1019.9 hPa NW 5.6 km/h 5.6 km/h 41 % 0 mm
13:13 18.9 °C 3.9 °C 1019.5 hPa NW 5.6 km/h 5.6 km/h 37 % 0 mm
13:18 18.9 °C 4.6 °C 1019.5 hPa NNW 5.6 km/h 5.6 km/h 39 % 0 mm
13:23 19.1 °C 5.6 °C 1019.5 hPa NNE 3.7 km/h 3.7 km/h 41 % 0 mm
13:28 19.4 °C 6.1 °C 1019.5 hPa NW 7.4 km/h 7.4 km/h 42 % 0 mm
13:33 19.2 °C 6 °C 1019.2 hPa SE 5.6 km/h 5.6 km/h 42 % 0 mm
13:36 19.3 °C 6.1 °C 1019.2 hPa NW 5.6 km/h 5.6 km/h 42 % 0 mm
13:41 19.4 °C 6.2 °C 1018.8 hPa SW 3.7 km/h 3.7 km/h 42 % 0 mm
13:46 19.6 °C 6.3 °C 1018.8 hPa NNW 5.6 km/h 5.6 km/h 42 % 0 mm
13:50 19.6 °C 6.9 °C 1018.8 hPa NNW 5.6 km/h 5.6 km/h 44 % 0 mm
13:55 19.7 °C 5.7 °C 1018.5 hPa NW 1.9 km/h 1.9 km/h 40 % 0 mm
14:00 19.7 °C 5.3 °C 1018.5 hPa WNW 6.4 km/h 6.4 km/h 39 % 0 mm
14:05 19.8 °C 4.7 °C 1018.5 hPa NNE 5.6 km/h 5.6 km/h 37 % 0 mm
14:10 20.1 °C 4.9 °C 1018.5 hPa West 1.9 km/h 1.9 km/h 37 % 0 mm
14:15 20.1 °C 4.6 °C 1018.5 hPa WNW 5.6 km/h 5.6 km/h 36 % 0 mm
14:16 20.1 °C 4.6 °C 1018.5 hPa NW 5.6 km/h 5.6 km/h 36 % 0 mm
14:21 20.2 °C 4.7 °C 1018.5 hPa NW 1.9 km/h 3.2 km/h 36 % 0 mm
14:26 20.3 °C 5.2 °C 1018.2 hPa WNW 5.6 km/h 5.6 km/h 37 % 0 mm
14:28 20.3 °C 4.3 °C 1018.2 hPa WNW 5.6 km/h 5.6 km/h 35 % 0 mm
14:33 20.3 °C 3.9 °C 1018.2 hPa North 4.8 km/h 4.8 km/h 34 % 0 mm
14:38 20.6 °C 4.1 °C 1018.2 hPa WNW 9.3 km/h 9.3 km/h 34 % 0 mm
14:43 20.4 °C 4.1 °C 1018.2 hPa NW 5.6 km/h 5.6 km/h 34 % 0 mm
14:47 20.4 °C 4 °C 1018.2 hPa NW 3.2 km/h 3.2 km/h 34 % 0 mm
14:48 20.4 °C 4.4 °C 1018.2 hPa NW 3.7 km/h 3.7 km/h 35 % 0 mm
14:53 20.6 °C 3.8 °C 1018.2 hPa NW 6.4 km/h 6.4 km/h 33 % 0 mm
14:58 20.5 °C 3.7 °C 1018.2 hPa WNW 9.3 km/h 9.3 km/h 33 % 0 mm
15:03 20.3 °C 3.5 °C 1017.8 hPa NW 3.2 km/h 3.2 km/h 33 % 0 mm
15:08 20.4 °C 4.8 °C 1017.8 hPa WNW 5.6 km/h 5.6 km/h 36 % 0 mm
15:13 20.4 °C 3.6 °C 1017.8 hPa NW 5.6 km/h 5.6 km/h 33 % 0 mm
15:18 20.4 °C 4.1 °C 1017.8 hPa NNW 5.6 km/h 5.6 km/h 34 % 0 mm
15:23 20.4 °C 3.6 °C 1017.8 hPa NW 1.9 km/h 3.2 km/h 33 % 0 mm
15:29 20.3 °C 3.4 °C 1017.8 hPa NW 5.6 km/h   33 % 0 mm
15:34 20.2 °C 4.2 °C 1017.8 hPa NW 5.6 km/h 5.6 km/h 35 % 0 mm
15:39 20.1 °C 4.9 °C 1017.8 hPa NW 5.6 km/h 5.6 km/h 37 % 0 mm
15:44 20.2 °C 4.2 °C 1017.8 hPa NW 5.6 km/h 5.6 km/h 35 % 0 mm
15:49 20.2 °C 3.8 °C 1017.8 hPa WNW 3.7 km/h 3.7 km/h 34 % 0 mm
15:54 20.1 °C 2.9 °C 1017.8 hPa NW 5.6 km/h 5.6 km/h 32 % 0 mm
15:59 20.1 °C 2.4 °C 1017.8 hPa WNW 3.7 km/h 3.7 km/h 31 % 0 mm
16:04 20 °C 2.8 °C 1017.8 hPa NW 5.6 km/h 5.6 km/h 32 % 0 mm
16:09 19.9 °C 1.8 °C 1017.5 hPa WNW 3.7 km/h 3.7 km/h 30 % 0 mm
16:14 19.9 °C 2.3 °C 1017.5 hPa NW 3.7 km/h 3.7 km/h 31 % 0 mm
16:19 19.8 °C 1.7 °C 1017.5 hPa NW 3.7 km/h 3.7 km/h 30 % 0 mm
16:24 19.7 °C 2.6 °C 1017.5 hPa NNE 5.6 km/h 5.6 km/h 32 % 0 mm
16:29 19.7 °C 3.3 °C 1017.5 hPa WNW 5.6 km/h 5.6 km/h 34 % 0 mm
16:34 19.6 °C 3.3 °C 1017.5 hPa NW 3.7 km/h 3.7 km/h 34 % 0 mm
16:39 19.5 °C 3.6 °C 1017.5 hPa NNW 3.7 km/h 3.7 km/h 35 % 0 mm
16:44 19.6 °C 4.4 °C 1017.5 hPa WNW 5.6 km/h 5.6 km/h 37 % 0 mm
16:49 19.4 °C 3.5 °C 1017.5 hPa NNW 1.9 km/h 1.9 km/h 35 % 0 mm
16:54 19.3 °C 4.2 °C 1017.8 hPa NW 1.9 km/h 1.9 km/h 37 % 0 mm
16:59 19.2 °C 3.7 °C 1017.5 hPa Calm     36 % 0 mm
17:04 19.1 °C 4 °C 1017.5 hPa NNW 1.9 km/h 1.9 km/h 37 % 0 mm
17:09 19 °C 4.7 °C 1017.5 hPa NW 5.6 km/h 5.6 km/h 39 % 0 mm
17:14 18.8 °C 4.9 °C 1017.5 hPa NW 1.9 km/h 1.9 km/h 40 % 0 mm
17:19 18.7 °C 5.6 °C 1017.5 hPa Calm     42 % 0 mm
17:24 18.6 °C 5.7 °C 1017.5 hPa Calm     43 % 0 mm
17:29 18.4 °C 5.9 °C 1017.5 hPa NW 1.9 km/h 1.9 km/h 44 % 0 mm
17:34 18.3 °C 6.2 °C 1017.5 hPa Calm     45 % 0 mm
17:39 18.2 °C 6.1 °C 1017.2 hPa Calm     45 % 0 mm
17:44 18 °C 5.9 °C 1017.2 hPa NW 1.9 km/h 1.9 km/h 45 % 0 mm
17:49 17.8 °C 6 °C 1017.5 hPa Calm     46 % 0 mm
17:54 17.5 °C 6.1 °C 1017.2 hPa NW 1.9 km/h   47 % 0 mm
17:59 17.2 °C 6.7 °C 1017.2 hPa Calm     50 % 0 mm
18:04 16.9 °C 6.1 °C 1017.2 hPa Calm     49 % 0 mm
18:09 16.6 °C 6.7 °C 1017.2 hPa Calm     52 % 0 mm
18:14 16.1 °C 7.1 °C 1017.2 hPa Calm     55 % 0 mm
18:19 15.6 °C 6.8 °C 1017.2 hPa Calm     56 % 0 mm
18:24 15.2 °C 7 °C 1017.2 hPa Calm     58 % 0 mm
18:29 14.8 °C 7.1 °C 1017.2 hPa Calm     60 % 0 mm
18:34 14.4 °C 7 °C 1017.5 hPa Calm     61 % 0 mm
18:39 14.2 °C 7 °C 1017.5 hPa Calm     62 % 0 mm
18:44 13.8 °C 6.7 °C 1017.5 hPa Calm     62 % 0 mm
18:49 13.5 °C 6.8 °C 1017.5 hPa Calm     64 % 0 mm
18:54 13.2 °C 6.9 °C 1017.8 hPa Calm     66 % 0 mm
18:59 12.8 °C 6.8 °C 1017.8 hPa Calm     67 % 0 mm
19:04 12.5 °C 7.2 °C 1017.8 hPa Calm     70 % 0 mm
19:09 12.2 °C 7.1 °C 1018.2 hPa Calm     71 % 0 mm
19:14 12.1 °C 6.9 °C 1018.2 hPa Calm     71 % 0 mm
19:19 12 °C 6.9 °C 1018.2 hPa Calm     71 % 0 mm
19:24 12.1 °C 6.7 °C 1018.5 hPa Calm     70 % 0 mm
19:29 12.1 °C 6.7 °C 1018.5 hPa Calm     70 % 0 mm
19:34 12 °C 6.7 °C 1018.5 hPa Calm     70 % 0 mm
19:39 12 °C 6.7 °C 1018.8 hPa Calm     70 % 0 mm
19:44 12 °C 6.7 °C 1018.8 hPa Calm     70 % 0 mm
19:49 11.8 °C 6.6 °C 1018.8 hPa Calm     70 % 0 mm
19:54 11.8 °C 6.5 °C 1018.8 hPa Calm     70 % 0 mm
19:59 11.9 °C 6.6 °C 1018.8 hPa Calm     70 % 0 mm
20:04 12.1 °C 6.6 °C 1018.8 hPa Calm     69 % 0 mm
20:09 12.2 °C 6.5 °C 1018.8 hPa Calm     68 % 0 mm
20:14 12.1 °C 6.4 °C 1018.8 hPa Calm     68 % 0 mm
20:19 11.9 °C 6.4 °C 1018.8 hPa Calm     69 % 0 mm
20:24 11.6 °C 6.3 °C 1018.8 hPa Calm     70 % 0 mm
20:29 11.5 °C 6.2 °C 1018.8 hPa Calm     70 % 0 mm
20:34 11.3 °C 6.1 °C 1018.8 hPa Calm     70 % 0 mm
20:39 11.1 °C 6.4 °C 1018.8 hPa Calm     73 % 0 mm
20:44 10.9 °C 6.5 °C 1018.5 hPa Calm     74 % 0 mm
20:49 10.9 °C 6.4 °C 1018.5 hPa Calm     74 % 0 mm
20:54 10.6 °C 6.3 °C 1018.5 hPa Calm     75 % 0 mm
20:59 10.3 °C 6.2 °C 1018.2 hPa Calm     76 % 0 mm
21:04 9.9 °C 6.3 °C 1018.2 hPa Calm     78 % 0 mm
21:09 9.9 °C 6.3 °C 1017.8 hPa Calm     78 % 0 mm
21:14 10.2 °C 6.5 °C 1017.8 hPa Calm     78 % 0 mm
21:19 10.2 °C 6.6 °C 1017.8 hPa Calm     78 % 0 mm
21:24 10.3 °C 6.2 °C 1017.5 hPa NNE 1.9 km/h   76 % 0 mm
21:29 10.5 °C 6.3 °C 1017.5 hPa Calm     75 % 0 mm
21:35 10.4 °C 6.4 °C 1017.5 hPa Calm     76 % 0 mm
21:40 10.1 °C 6.2 °C 1017.2 hPa Calm     77 % 0 mm
21:45 9.8 °C 6.2 °C 1017.2 hPa Calm     78 % 0 mm
21:50 10.1 °C 6.2 °C 1017.2 hPa Calm     77 % 0 mm
21:55 10 °C 6.2 °C 1017.2 hPa Calm     77 % 0 mm
22:00 10 °C 6.2 °C 1017.2 hPa NNW 1.9 km/h   77 % 0 mm
22:05 10.3 °C 6.2 °C 1017.2 hPa Calm     76 % 0 mm
22:10 10.7 °C 6.2 °C 1017.2 hPa Calm     74 % 0 mm
22:15 10.8 °C 6.1 °C 1017.2 hPa Calm     73 % 0 mm
22:20 10.8 °C 6.1 °C 1017.2 hPa Calm     73 % 0 mm
22:25 10.7 °C 6 °C 1017.2 hPa NNW 1.9 km/h   73 % 0 mm
22:30 10.7 °C 5.9 °C 1017.2 hPa Calm     72 % 0 mm
22:35 10.8 °C 6 °C 1017.2 hPa Calm     72 % 0 mm
22:40 10.8 °C 6.1 °C 1017.2 hPa Calm     73 % 0 mm
22:45 10.1 °C 5.9 °C 1017.2 hPa Calm     75 % 0 mm
22:50 9.6 °C 5.8 °C 1017.2 hPa Calm     77 % 0 mm
22:55 9.2 °C 5.6 °C 1017.2 hPa Calm     78 % 0 mm
23:00 9 °C 5.7 °C 1017.2 hPa Calm     80 % 0 mm
23:05 8.8 °C 5.7 °C 1017.2 hPa Calm     81 % 0 mm
23:10 8.7 °C 5.6 °C 1017.5 hPa Calm     81 % 0 mm
23:15 8.5 °C 5.6 °C 1017.5 hPa Calm     82 % 0 mm
23:20 8.3 °C 5.6 °C 1017.5 hPa Calm     83 % 0 mm
23:25 8.2 °C 5.5 °C 1017.8 hPa Calm     83 % 0 mm
23:30 8.1 °C 5.4 °C 1018.2 hPa Calm     83 % 0 mm
23:35 7.9 °C 5.2 °C 1018.2 hPa Calm     83 % 0 mm
23:40 7.6 °C 5.1 °C 1018.2 hPa Calm     84 % 0 mm
23:45 7.6 °C 5.2 °C 1018.2 hPa Calm     85 % 0 mm
23:50 7.6 °C 5.4 °C 1018.2 hPa Calm     86 % 0 mm
23:55 7.8 °C 5.6 °C 1018.2 hPa Calm     86 % 0 mm
Park Place, Exeter, Tulare County, California, USA
Compliments of Weather Underground - 2.75 mb